ASA52 PABR-PASC
Flight info
| Callsign | ASA52 |
|---|---|
| Flight time | 0h 52m |
| Altitude | 25000 |
| Route | PABR/26 N0422F250 DCT BRW Q48 SCC DCT PASC/24 |
| Aircraft | B38M/M-SDE1FGHILORVWXY/HB1 |
Departure
| Time | 2026-04-22 19:25 |
|---|---|
| Airport | Wiley Post Will Rogers Memorial Airport (PABR) |
Arrival
| Time | 2026-04-22 20:18 |
|---|---|
| Airport | Deadhorse Airport (PASC) |
| Time | Latitude | Longitude | Altitude | Speed | Heading |
|---|---|---|---|---|---|
| 2026-04-22 18:40 | 71.28727 | -156.77791 | 55 ft | 0 kts | 32° |
| 2026-04-22 19:21 | 71.28727 | -156.77789 | 55 ft | 0 kts | 43° |
| 2026-04-22 19:21 | 71.28727 | -156.77779 | 55 ft | 0 kts | 93° |
| 2026-04-22 19:21 | 71.28723 | -156.77775 | 55 ft | 0 kts | 154° |
| 2026-04-22 19:22 | 71.28708 | -156.77789 | 55 ft | 6 kts | 205° |
| 2026-04-22 19:22 | 71.28693 | -156.77934 | 55 ft | 8 kts | 271° |
| 2026-04-22 19:22 | 71.28692 | -156.78139 | 55 ft | 10 kts | 269° |
| 2026-04-22 19:22 | 71.28691 | -156.78387 | 55 ft | 12 kts | 268° |
| 2026-04-22 19:23 | 71.28674 | -156.78672 | 50 ft | 14 kts | 255° |
| 2026-04-22 19:23 | 71.28648 | -156.78959 | 55 ft | 13 kts | 253° |
| 2026-04-22 19:23 | 71.28626 | -156.79203 | 54 ft | 8 kts | 255° |
| 2026-04-22 19:23 | 71.28595 | -156.79347 | 55 ft | 9 kts | 204° |
| 2026-04-22 19:24 | 71.28557 | -156.79329 | 54 ft | 4 kts | 140° |
| 2026-04-22 19:24 | 71.28551 | -156.79284 | 55 ft | 2 kts | 105° |
| 2026-04-22 19:24 | 71.28549 | -156.79252 | 55 ft | 0 kts | 95° |
| 2026-04-22 19:25 | 71.28548 | -156.78825 | 55 ft | 59 kts | 89° |
| 2026-04-22 19:25 | 71.28550 | -156.76676 | 54 ft | 137 kts | 89° |
| 2026-04-22 19:25 | 71.28514 | -156.73235 | 408 ft | 174 kts | 91° |
| 2026-04-22 19:25 | 71.28451 | -156.69335 | 1404 ft | 186 kts | 91° |
| 2026-04-22 19:26 | 71.28393 | -156.65244 | 2473 ft | 195 kts | 92° |
| 2026-04-22 19:26 | 71.28311 | -156.60679 | 2967 ft | 224 kts | 98° |
| 2026-04-22 19:26 | 71.27722 | -156.55954 | 3658 ft | 244 kts | 115° |
| 2026-04-22 19:26 | 71.26988 | -156.51111 | 4685 ft | 248 kts | 113° |
| 2026-04-22 19:27 | 71.26272 | -156.46179 | 5697 ft | 253 kts | 113° |
| 2026-04-22 19:27 | 71.25553 | -156.41129 | 6730 ft | 256 kts | 112° |
| 2026-04-22 19:27 | 71.24834 | -156.36025 | 7686 ft | 260 kts | 112° |
| 2026-04-22 19:27 | 71.24109 | -156.30852 | 8658 ft | 262 kts | 112° |
| 2026-04-22 19:28 | 71.23379 | -156.25629 | 9599 ft | 265 kts | 112° |
| 2026-04-22 19:28 | 71.22640 | -156.20338 | 10539 ft | 268 kts | 112° |
| 2026-04-22 19:28 | 71.21883 | -156.14897 | 11107 ft | 283 kts | 111° |
| 2026-04-22 19:28 | 71.21080 | -156.09082 | 11465 ft | 303 kts | 112° |
| 2026-04-22 19:29 | 71.20225 | -156.02886 | 11794 ft | 322 kts | 112° |
| 2026-04-22 19:29 | 71.19330 | -155.96428 | 12239 ft | 336 kts | 112° |
| 2026-04-22 19:29 | 71.18397 | -155.89752 | 12990 ft | 338 kts | 112° |
| 2026-04-22 19:29 | 71.17445 | -155.83039 | 13725 ft | 342 kts | 112° |
| 2026-04-22 19:30 | 71.16807 | -155.78549 | 14186 ft | 345 kts | 112° |
| 2026-04-22 19:30 | 71.15501 | -155.69418 | 15066 ft | 349 kts | 112° |
| 2026-04-22 19:30 | 71.14511 | -155.62527 | 15697 ft | 351 kts | 112° |
| 2026-04-22 19:30 | 71.13512 | -155.55605 | 16310 ft | 354 kts | 112° |
| 2026-04-22 19:31 | 71.12500 | -155.48613 | 16918 ft | 357 kts | 113° |
| 2026-04-22 19:31 | 71.11491 | -155.41676 | 17493 ft | 360 kts | 113° |
| 2026-04-22 19:31 | 71.10446 | -155.34510 | 18084 ft | 363 kts | 113° |
| 2026-04-22 19:31 | 71.09402 | -155.27380 | 18658 ft | 366 kts | 113° |
| 2026-04-22 19:32 | 71.08372 | -155.20374 | 19139 ft | 369 kts | 113° |
| 2026-04-22 19:32 | 71.07297 | -155.13089 | 19610 ft | 372 kts | 113° |
| 2026-04-22 19:32 | 71.06220 | -155.05811 | 20065 ft | 374 kts | 113° |
| 2026-04-22 19:32 | 71.05133 | -154.98500 | 20511 ft | 377 kts | 113° |
| 2026-04-22 19:33 | 71.04034 | -154.91130 | 20967 ft | 380 kts | 114° |
| 2026-04-22 19:33 | 71.02937 | -154.83814 | 21408 ft | 383 kts | 114° |
| 2026-04-22 19:33 | 71.01801 | -154.76257 | 21823 ft | 386 kts | 114° |
| 2026-04-22 19:33 | 71.00667 | -154.68742 | 22251 ft | 388 kts | 114° |
| 2026-04-22 19:34 | 70.99525 | -154.61202 | 22660 ft | 391 kts | 114° |
| 2026-04-22 19:34 | 70.98383 | -154.53701 | 23060 ft | 394 kts | 114° |
| 2026-04-22 19:34 | 70.97217 | -154.46060 | 23468 ft | 397 kts | 114° |
| 2026-04-22 19:34 | 70.96039 | -154.38376 | 23880 ft | 400 kts | 114° |
| 2026-04-22 19:35 | 70.94848 | -154.30641 | 24228 ft | 403 kts | 114° |
| 2026-04-22 19:35 | 70.93645 | -154.22853 | 24528 ft | 406 kts | 115° |
| 2026-04-22 19:35 | 70.92840 | -154.17662 | 24723 ft | 409 kts | 115° |
| 2026-04-22 19:35 | 70.91195 | -154.07100 | 25124 ft | 413 kts | 115° |
| 2026-04-22 19:36 | 70.89950 | -153.99137 | 25396 ft | 417 kts | 115° |
| 2026-04-22 19:36 | 70.88688 | -153.91083 | 25488 ft | 425 kts | 115° |
| 2026-04-22 19:36 | 70.87402 | -153.82879 | 25487 ft | 433 kts | 115° |
| 2026-04-22 19:36 | 70.86087 | -153.74532 | 25485 ft | 440 kts | 115° |
| 2026-04-22 19:37 | 70.84748 | -153.66082 | 25484 ft | 445 kts | 115° |
| 2026-04-22 19:37 | 70.83392 | -153.57581 | 25489 ft | 445 kts | 115° |
| 2026-04-22 19:37 | 70.82034 | -153.49108 | 25488 ft | 445 kts | 116° |
| 2026-04-22 19:37 | 70.80685 | -153.40741 | 25489 ft | 446 kts | 116° |
| 2026-04-22 19:38 | 70.79319 | -153.32292 | 25491 ft | 446 kts | 116° |
| 2026-04-22 19:38 | 70.77947 | -153.23855 | 25488 ft | 446 kts | 116° |
| 2026-04-22 19:38 | 70.76570 | -153.15414 | 25492 ft | 446 kts | 116° |
| 2026-04-22 19:38 | 70.75189 | -153.06985 | 25491 ft | 446 kts | 116° |
| 2026-04-22 19:39 | 70.73803 | -152.98557 | 25350 ft | 446 kts | 116° |
| 2026-04-22 19:39 | 70.72419 | -152.90177 | 25107 ft | 444 kts | 116° |
| 2026-04-22 19:39 | 70.71037 | -152.81842 | 24872 ft | 442 kts | 116° |
| 2026-04-22 19:39 | 70.69656 | -152.73554 | 24628 ft | 440 kts | 116° |
| 2026-04-22 19:40 | 70.68279 | -152.65313 | 24395 ft | 438 kts | 116° |
| 2026-04-22 19:40 | 70.66905 | -152.57135 | 24160 ft | 436 kts | 116° |
| 2026-04-22 19:40 | 70.65532 | -152.48996 | 23897 ft | 434 kts | 116° |
| 2026-04-22 19:40 | 70.64180 | -152.41012 | 23611 ft | 433 kts | 116° |
| 2026-04-22 19:41 | 70.62793 | -152.32844 | 23329 ft | 432 kts | 116° |
| 2026-04-22 19:41 | 70.61441 | -152.24921 | 23050 ft | 430 kts | 116° |
| 2026-04-22 19:41 | 70.60070 | -152.16916 | 22772 ft | 429 kts | 116° |
| 2026-04-22 19:41 | 70.58699 | -152.08943 | 22500 ft | 428 kts | 116° |
| 2026-04-22 19:42 | 70.57328 | -152.01002 | 22231 ft | 427 kts | 117° |
| 2026-04-22 19:42 | 70.55960 | -151.93106 | 21963 ft | 426 kts | 117° |
| 2026-04-22 19:42 | 70.54590 | -151.85228 | 21697 ft | 425 kts | 117° |
| 2026-04-22 19:42 | 70.53217 | -151.77372 | 21437 ft | 424 kts | 117° |
| 2026-04-22 19:43 | 70.50481 | -151.61793 | 20906 ft | 421 kts | 117° |
| 2026-04-22 19:43 | 70.49127 | -151.54126 | 20653 ft | 420 kts | 117° |
| 2026-04-22 19:43 | 70.47760 | -151.46412 | 20400 ft | 419 kts | 117° |
| 2026-04-22 19:44 | 70.46393 | -151.38728 | 20144 ft | 417 kts | 117° |
| 2026-04-22 19:44 | 70.45031 | -151.31106 | 19893 ft | 416 kts | 117° |
| 2026-04-22 19:44 | 70.43668 | -151.23509 | 19642 ft | 414 kts | 117° |
| 2026-04-22 19:44 | 70.42310 | -151.15958 | 19392 ft | 412 kts | 117° |
| 2026-04-22 19:45 | 70.40951 | -151.08435 | 19148 ft | 411 kts | 117° |
| 2026-04-22 19:45 | 70.39598 | -151.00972 | 18910 ft | 409 kts | 117° |
| 2026-04-22 19:45 | 70.38242 | -150.93519 | 18639 ft | 407 kts | 117° |
| 2026-04-22 19:45 | 70.36894 | -150.86134 | 18367 ft | 406 kts | 117° |
| 2026-04-22 19:46 | 70.35547 | -150.78785 | 18087 ft | 404 kts | 117° |
| 2026-04-22 19:46 | 70.34200 | -150.71458 | 17807 ft | 403 kts | 118° |
| 2026-04-22 19:46 | 70.32856 | -150.64176 | 17540 ft | 401 kts | 118° |
| 2026-04-22 19:46 | 70.31513 | -150.56919 | 17270 ft | 400 kts | 118° |
| 2026-04-22 19:47 | 70.30173 | -150.49709 | 16996 ft | 399 kts | 118° |
| 2026-04-22 19:47 | 70.28836 | -150.42538 | 16658 ft | 396 kts | 118° |
| 2026-04-22 19:47 | 70.27959 | -150.37849 | 16379 ft | 390 kts | 118° |
| 2026-04-22 19:47 | 70.26219 | -150.28587 | 15767 ft | 380 kts | 118° |
| 2026-04-22 19:48 | 70.25372 | -150.24090 | 15456 ft | 377 kts | 118° |
| 2026-04-22 19:48 | 70.23690 | -150.15192 | 14854 ft | 369 kts | 118° |
| 2026-04-22 19:48 | 70.22848 | -150.10743 | 14543 ft | 366 kts | 118° |
| 2026-04-22 19:48 | 70.21626 | -150.04311 | 14083 ft | 362 kts | 118° |
| 2026-04-22 19:49 | 70.20390 | -149.97826 | 13573 ft | 358 kts | 118° |
| 2026-04-22 19:49 | 70.19168 | -149.91429 | 13080 ft | 355 kts | 119° |
| 2026-04-22 19:49 | 70.17961 | -149.85129 | 12590 ft | 352 kts | 119° |
| 2026-04-22 19:49 | 70.16759 | -149.78878 | 12109 ft | 349 kts | 119° |
| 2026-04-22 19:50 | 70.15566 | -149.72687 | 11635 ft | 346 kts | 119° |
| 2026-04-22 19:50 | 70.14384 | -149.66574 | 11166 ft | 343 kts | 119° |
| 2026-04-22 19:50 | 70.13206 | -149.60494 | 10703 ft | 341 kts | 119° |
| 2026-04-22 19:50 | 70.12032 | -149.54458 | 10236 ft | 336 kts | 119° |
| 2026-04-22 19:51 | 70.10885 | -149.48576 | 9737 ft | 328 kts | 119° |
| 2026-04-22 19:51 | 70.09764 | -149.42846 | 9237 ft | 320 kts | 119° |
| 2026-04-22 19:51 | 70.08668 | -149.37255 | 8742 ft | 311 kts | 119° |
| 2026-04-22 19:51 | 70.07615 | -149.31902 | 8390 ft | 301 kts | 119° |
| 2026-04-22 19:52 | 70.06597 | -149.26736 | 8228 ft | 285 kts | 119° |
| 2026-04-22 19:52 | 70.05627 | -149.21827 | 8038 ft | 273 kts | 119° |
| 2026-04-22 19:52 | 70.04683 | -149.17059 | 7865 ft | 267 kts | 119° |
| 2026-04-22 19:52 | 70.03757 | -149.12394 | 7685 ft | 264 kts | 119° |
| 2026-04-22 19:53 | 70.02835 | -149.07749 | 7500 ft | 262 kts | 119° |
| 2026-04-22 19:53 | 70.01919 | -149.03150 | 7373 ft | 262 kts | 119° |
| 2026-04-22 19:53 | 70.00998 | -148.98534 | 7243 ft | 262 kts | 119° |
| 2026-04-22 19:53 | 70.00081 | -148.93945 | 7114 ft | 261 kts | 120° |
| 2026-04-22 19:54 | 69.99167 | -148.89383 | 6988 ft | 260 kts | 120° |
| 2026-04-22 19:54 | 69.98252 | -148.84827 | 6854 ft | 260 kts | 120° |
| 2026-04-22 19:54 | 69.97351 | -148.80348 | 6754 ft | 259 kts | 120° |
| 2026-04-22 19:54 | 69.96437 | -148.75824 | 6681 ft | 259 kts | 120° |
| 2026-04-22 19:55 | 69.95525 | -148.71305 | 6593 ft | 258 kts | 120° |
| 2026-04-22 19:55 | 69.94566 | -148.66880 | 6496 ft | 258 kts | 130° |
| 2026-04-22 19:55 | 69.93129 | -148.63815 | 6409 ft | 259 kts | 157° |
| 2026-04-22 19:55 | 69.91362 | -148.62939 | 6332 ft | 261 kts | 183° |
| 2026-04-22 19:56 | 69.89615 | -148.64418 | 6244 ft | 264 kts | 209° |
| 2026-04-22 19:56 | 69.88242 | -148.67919 | 6163 ft | 265 kts | 233° |
| 2026-04-22 19:56 | 69.87484 | -148.72695 | 6075 ft | 266 kts | 258° |
| 2026-04-22 19:56 | 69.87449 | -148.78038 | 6022 ft | 266 kts | 282° |
| 2026-04-22 19:57 | 69.88115 | -148.83006 | 6022 ft | 266 kts | 297° |
| 2026-04-22 19:57 | 69.88959 | -148.87803 | 6010 ft | 266 kts | 298° |
| 2026-04-22 19:57 | 69.89820 | -148.92560 | 5982 ft | 266 kts | 299° |
| 2026-04-22 19:57 | 69.90697 | -148.97287 | 5847 ft | 265 kts | 299° |
| 2026-04-22 19:58 | 69.91634 | -149.01910 | 5697 ft | 263 kts | 311° |
| 2026-04-22 19:58 | 69.93047 | -149.05137 | 5554 ft | 258 kts | 338° |
| 2026-04-22 19:58 | 69.94778 | -149.06236 | 5412 ft | 254 kts | 3° |
| 2026-04-22 19:58 | 69.96476 | -149.05103 | 5275 ft | 251 kts | 27° |
| 2026-04-22 19:59 | 69.97848 | -149.02040 | 5138 ft | 249 kts | 51° |
| 2026-04-22 20:00 | 69.96134 | -148.74937 | 4181 ft | 231 kts | 117° |
| 2026-04-22 20:00 | 69.95378 | -148.70856 | 3986 ft | 227 kts | 118° |
| 2026-04-22 20:01 | 69.94692 | -148.66751 | 3730 ft | 224 kts | 110° |
| 2026-04-22 20:01 | 69.94201 | -148.62475 | 3481 ft | 221 kts | 105° |
| 2026-04-22 20:01 | 69.93826 | -148.58169 | 3224 ft | 219 kts | 102° |
| 2026-04-22 20:01 | 69.93544 | -148.53833 | 2963 ft | 216 kts | 98° |
| 2026-04-22 20:02 | 69.93352 | -148.49512 | 2710 ft | 214 kts | 95° |
| 2026-04-22 20:02 | 69.93247 | -148.45220 | 2444 ft | 212 kts | 92° |
| 2026-04-22 20:02 | 69.93224 | -148.40995 | 2316 ft | 204 kts | 89° |
| 2026-04-22 20:02 | 69.93273 | -148.36909 | 2301 ft | 205 kts | 86° |
| 2026-04-22 20:03 | 69.93397 | -148.32778 | 2306 ft | 205 kts | 83° |
| 2026-04-22 20:03 | 69.93599 | -148.28608 | 2314 ft | 210 kts | 80° |
| 2026-04-22 20:03 | 69.93883 | -148.24397 | 2311 ft | 212 kts | 77° |
| 2026-04-22 20:03 | 69.94245 | -148.20227 | 2313 ft | 213 kts | 74° |
| 2026-04-22 20:04 | 69.94686 | -148.16114 | 2309 ft | 213 kts | 71° |
| 2026-04-22 20:04 | 69.95202 | -148.12076 | 2310 ft | 213 kts | 68° |
| 2026-04-22 20:04 | 69.95789 | -148.08150 | 2311 ft | 209 kts | 64° |
| 2026-04-22 20:04 | 69.96433 | -148.04401 | 2307 ft | 204 kts | 62° |
| 2026-04-22 20:05 | 69.97133 | -148.00808 | 2302 ft | 204 kts | 58° |
| 2026-04-22 20:05 | 69.97900 | -147.97316 | 2300 ft | 204 kts | 55° |
| 2026-04-22 20:05 | 69.98729 | -147.93947 | 2305 ft | 204 kts | 52° |
| 2026-04-22 20:05 | 69.99618 | -147.90705 | 2304 ft | 204 kts | 49° |
| 2026-04-22 20:06 | 70.00549 | -147.87655 | 2304 ft | 204 kts | 46° |
| 2026-04-22 20:06 | 70.01548 | -147.84709 | 2301 ft | 204 kts | 43° |
| 2026-04-22 20:06 | 70.02596 | -147.81924 | 2344 ft | 204 kts | 40° |
| 2026-04-22 20:06 | 70.03698 | -147.79287 | 2338 ft | 204 kts | 37° |
| 2026-04-22 20:07 | 70.04842 | -147.76834 | 2311 ft | 204 kts | 34° |
| 2026-04-22 20:07 | 70.06026 | -147.74561 | 2302 ft | 204 kts | 31° |
| 2026-04-22 20:07 | 70.07248 | -147.72476 | 2295 ft | 200 kts | 28° |
| 2026-04-22 20:07 | 70.08432 | -147.70673 | 2337 ft | 187 kts | 25° |
| 2026-04-22 20:08 | 70.09608 | -147.69106 | 2311 ft | 184 kts | 22° |
| 2026-04-22 20:08 | 70.10802 | -147.67717 | 2305 ft | 184 kts | 20° |
| 2026-04-22 20:08 | 70.12013 | -147.66497 | 2289 ft | 184 kts | 17° |
| 2026-04-22 20:08 | 70.13244 | -147.65444 | 2309 ft | 184 kts | 14° |
| 2026-04-22 20:09 | 70.14491 | -147.64558 | 2287 ft | 184 kts | 12° |
| 2026-04-22 20:09 | 70.15736 | -147.63864 | 2298 ft | 184 kts | 8° |
| 2026-04-22 20:09 | 70.17003 | -147.63336 | 2292 ft | 183 kts | 6° |
| 2026-04-22 20:09 | 70.18265 | -147.62988 | 2297 ft | 179 kts | 3° |
| 2026-04-22 20:10 | 70.19492 | -147.62828 | 2286 ft | 174 kts | 0° |
| 2026-04-22 20:10 | 70.20700 | -147.62835 | 2282 ft | 173 kts | 358° |
| 2026-04-22 20:10 | 70.21901 | -147.63004 | 2268 ft | 172 kts | 355° |
| 2026-04-22 20:10 | 70.23092 | -147.63386 | 2288 ft | 172 kts | 348° |
| 2026-04-22 20:11 | 70.24236 | -147.64236 | 2292 ft | 167 kts | 345° |
| 2026-04-22 20:11 | 70.25303 | -147.65452 | 2245 ft | 164 kts | 320° |
| 2026-04-22 20:11 | 70.25912 | -147.68186 | 2266 ft | 162 kts | 284° |
| 2026-04-22 20:11 | 70.25945 | -147.71496 | 2321 ft | 163 kts | 261° |
| 2026-04-22 20:12 | 70.25722 | -147.74797 | 2335 ft | 164 kts | 258° |
| 2026-04-22 20:12 | 70.25476 | -147.78092 | 2319 ft | 164 kts | 257° |
| 2026-04-22 20:12 | 70.25305 | -147.80263 | 2315 ft | 164 kts | 257° |
| 2026-04-22 20:12 | 70.24948 | -147.84655 | 2310 ft | 164 kts | 257° |
| 2026-04-22 20:13 | 70.24680 | -147.87879 | 2306 ft | 164 kts | 257° |
| 2026-04-22 20:13 | 70.24401 | -147.91152 | 2297 ft | 165 kts | 256° |
| 2026-04-22 20:13 | 70.24118 | -147.94516 | 2300 ft | 171 kts | 256° |
| 2026-04-22 20:13 | 70.23823 | -147.97957 | 2221 ft | 176 kts | 257° |
| 2026-04-22 20:14 | 70.23521 | -148.01464 | 2201 ft | 173 kts | 255° |
| 2026-04-22 20:14 | 70.23221 | -148.04863 | 2075 ft | 172 kts | 256° |
| 2026-04-22 20:14 | 70.22957 | -148.08293 | 1914 ft | 168 kts | 258° |
| 2026-04-22 20:14 | 70.22732 | -148.11534 | 1825 ft | 157 kts | 258° |
| 2026-04-22 20:15 | 70.22503 | -148.14648 | 1751 ft | 155 kts | 257° |
| 2026-04-22 20:15 | 70.22247 | -148.17782 | 1707 ft | 156 kts | 256° |
| 2026-04-22 20:15 | 70.21962 | -148.20839 | 1637 ft | 153 kts | 255° |
| 2026-04-22 20:15 | 70.21678 | -148.23839 | 1493 ft | 155 kts | 255° |
| 2026-04-22 20:16 | 70.21412 | -148.26914 | 1326 ft | 151 kts | 256° |
| 2026-04-22 20:16 | 70.21166 | -148.29853 | 1178 ft | 146 kts | 256° |
| 2026-04-22 20:16 | 70.20912 | -148.32725 | 936 ft | 143 kts | 255° |
| 2026-04-22 20:16 | 70.20652 | -148.35530 | 731 ft | 141 kts | 253° |
| 2026-04-22 20:17 | 70.20402 | -148.38256 | 534 ft | 133 kts | 253° |
| 2026-04-22 20:17 | 70.20164 | -148.40845 | 319 ft | 129 kts | 255° |
| 2026-04-22 20:17 | 70.19932 | -148.43393 | 146 ft | 129 kts | 253° |
| 2026-04-22 20:17 | 70.19703 | -148.45867 | 77 ft | 113 kts | 255° |
| 2026-04-22 20:18 | 70.19586 | -148.47152 | 67 ft | 23 kts | 255° |
| 2026-04-22 20:18 | 70.19572 | -148.47444 | 66 ft | 10 kts | 293° |
| 2026-04-22 20:18 | 70.19615 | -148.47510 | 63 ft | 7 kts | 352° |
| 2026-04-22 20:18 | 70.19659 | -148.47445 | 68 ft | 8 kts | 60° |
| 2026-04-22 20:19 | 70.19699 | -148.47377 | 74 ft | 7 kts | 338° |
| 2026-04-22 20:19 | 70.19711 | -148.47432 | 69 ft | 0 kts | 261° |
| 2026-04-22 20:19 | 70.19704 | -148.47457 | 67 ft | 1 kts | 215° |
| 2026-04-22 20:19 | 70.19693 | -148.47469 | 64 ft | 3 kts | 197° |
| 2026-04-22 20:20 | 70.19686 | -148.47473 | 70 ft | 0 kts | 191° |